地図

経路データ

SID SEASON NUMBER BASIN SUBBASIN NAME ISO_TIME NATURE LAT LON WMO_WIND WMO_PRES WMO_AGENCY TRACK_TYPE DIST2LAND LANDFALL IFLAG USA_AGENCY USA_ATCF_ID USA_LAT USA_LON USA_RECORD USA_STATUS USA_WIND USA_PRES USA_SSHS USA_R34_NE USA_R34_SE USA_R34_SW USA_R34_NW USA_R50_NE USA_R50_SE USA_R50_SW USA_R50_NW USA_R64_NE USA_R64_SE USA_R64_SW USA_R64_NW USA_POCI USA_ROCI USA_RMW USA_EYE TOKYO_LAT TOKYO_LON TOKYO_GRADE TOKYO_WIND TOKYO_PRES TOKYO_R50_DIR TOKYO_R50_LONG TOKYO_R50_SHORT TOKYO_R30_DIR TOKYO_R30_LONG TOKYO_R30_SHORT TOKYO_LAND CMA_LAT CMA_LON CMA_CAT CMA_WIND CMA_PRES HKO_LAT HKO_LON HKO_CAT HKO_WIND HKO_PRES NEWDELHI_LAT NEWDELHI_LON NEWDELHI_GRADE NEWDELHI_WIND NEWDELHI_PRES NEWDELHI_CI NEWDELHI_DP NEWDELHI_POCI REUNION_LAT REUNION_LON REUNION_TYPE REUNION_WIND REUNION_PRES REUNION_TNUM REUNION_CI REUNION_RMW REUNION_R34_NE REUNION_R34_SE REUNION_R34_SW REUNION_R34_NW REUNION_R50_NE REUNION_R50_SE REUNION_R50_SW REUNION_R50_NW REUNION_R64_NE REUNION_R64_SE REUNION_R64_SW REUNION_R64_NW BOM_LAT BOM_LON BOM_TYPE BOM_WIND BOM_PRES BOM_TNUM BOM_CI BOM_RMW BOM_R34_NE BOM_R34_SE BOM_R34_SW BOM_R34_NW BOM_R50_NE BOM_R50_SE BOM_R50_SW BOM_R50_NW BOM_R64_NE BOM_R64_SE BOM_R64_SW BOM_R64_NW BOM_ROCI BOM_POCI BOM_EYE BOM_POS_METHOD BOM_PRES_METHOD NADI_LAT NADI_LON NADI_CAT NADI_WIND NADI_PRES WELLINGTON_LAT WELLINGTON_LON WELLINGTON_WIND WELLINGTON_PRES DS824_LAT DS824_LON DS824_STAGE DS824_WIND DS824_PRES TD9636_LAT TD9636_LON TD9636_STAGE TD9636_WIND TD9636_PRES TD9635_LAT TD9635_LON TD9635_WIND TD9635_PRES TD9635_ROCI NEUMANN_LAT NEUMANN_LON NEUMANN_CLASS NEUMANN_WIND NEUMANN_PRES MLC_LAT MLC_LON MLC_CLASS MLC_WIND MLC_PRES USA_GUST BOM_GUST BOM_GUST_PER REUNION_GUST REUNION_GUST_PER USA_SEAHGT USA_SEARAD_NE USA_SEARAD_SE USA_SEARAD_SW USA_SEARAD_NW STORM_SPEED STORM_DIR
1948323N10071 1948 86 NI AS NOT_NAMED 1948-11-17 18:00:00 TS 10.4000 70.7000 main 519 519 O________O____ jtwc_io IO181948 10.4000 70.7000 -1 10.4000 70.7000 TC 1 0
1948323N10071 1948 86 NI AS NOT_NAMED 1948-11-17 21:00:00 TS 10.3875 70.7225 main 519 519 P________P____ IO181948 10.3875 70.7225 -1 10.3875 70.7225 TC 1 317
1948323N10071 1948 86 NI AS NOT_NAMED 1948-11-18 00:00:00 TS 10.5000 70.6000 main 524 524 O________O____ jtwc_io IO181948 10.5000 70.6000 -1 10.5000 70.6000 TC 25 7 312
1948323N10071 1948 86 NI AS NOT_NAMED 1948-11-18 03:00:00 TS 10.8222 70.2288 main 548 544 P________PO___ IO181948 10.8250 70.2324 -1 10.8250 70.2324 TC 25 10.8000 70.2000 1 12 312
1948323N10071 1948 86 NI AS NOT_NAMED 1948-11-18 06:00:00 TS 11.2973 69.6924 main 579 579 O________OP___ jtwc_io IO181948 11.3000 69.7000 -1 11.3000 69.7000 TC 25 11.2866 69.6622 1 15 312
1948323N10071 1948 86 NI AS NOT_NAMED 1948-11-18 09:00:00 TS 11.8087 69.1106 main 629 629 P________PP___ IO181948 11.8126 69.1075 -1 11.8126 69.1075 TC 25 11.7982 69.1190 1 16 314
1948323N10071 1948 86 NI AS NOT_NAMED 1948-11-18 12:00:00 TS 12.3869 68.5221 main 657 651 O________OP___ jtwc_io IO181948 12.4000 68.5000 -1 12.4000 68.5000 TC 25 12.3606 68.5664 1 16 318
1948323N10071 1948 86 NI AS NOT_NAMED 1948-11-18 15:00:00 TS 13.0082 67.9947 main 678 678 P________PO___ IO181948 13.0123 67.9920 -1 13.0123 67.9920 TC 25 13.0000 68.0000 1 17 322
1948323N10071 1948 86 NI AS NOT_NAMED 1948-11-18 18:00:00 TS 13.7087 67.4747 main 697 697 O________OP___ jtwc_io IO181948 13.7000 67.5000 -1 13.7000 67.5000 TC 25 13.7261 67.4240 1 19 325
1948323N10071 1948 86 NI AS NOT_NAMED 1948-11-18 21:00:00 TS 14.5194 66.8972 main 721 718 P________PP___ IO181948 14.5377 66.9057 -1 14.5377 66.9057 TC 30 14.4828 66.8802 1 19 326
1948323N10071 1948 86 NI AS NOT_NAMED 1948-11-19 00:00:00 TS 15.2660 66.4070 main 750 733 O________OP___ jtwc_io IO181948 15.3000 66.4000 -1 15.3000 66.4000 TC 35 15.1981 66.4210 1 15 329
1948323N10071 1948 86 NI AS NOT_NAMED 1948-11-19 03:00:00 TS 15.7882 66.1063 main 733 713 P________PO___ IO181948 15.7823 66.1095 -1 15.7823 66.1095 TC 35 15.8000 66.1000 2 10 335
1948323N10071 1948 86 NI AS NOT_NAMED 1948-11-19 06:00:00 TS 16.1335 65.9891 main 713 686 O________OP___ jtwc_io IO181948 16.1000 66.0000 -1 16.1000 66.0000 TC 35 16.2004 65.9672 2 6 350
1948323N10071 1948 86 NI AS NOT_NAMED 1948-11-19 09:00:00 TS 16.4047 65.9950 main 686 662 P________PP___ IO181948 16.3650 66.0049 -1 16.3650 66.0049 TC 35 16.4841 65.9754 2 5 11
1948323N10071 1948 86 NI AS NOT_NAMED 1948-11-19 12:00:00 TS 16.6336 66.0903 main 662 630 O________OP___ jtwc_io IO181948 16.6000 66.1000 -1 16.6000 66.1000 TC 35 16.7008 66.0710 2 5 21
1948323N10071 1948 86 NI AS NOT_NAMED 1948-11-19 15:00:00 TS 16.9000 66.1950 main 630 598 P________PO___ IO181948 16.9000 66.1925 -1 16.9000 66.1925 TC 35 16.9000 66.2000 3 6 18
1948323N10071 1948 86 NI AS NOT_NAMED 1948-11-19 18:00:00 TS 17.1884 66.2821 main 598 574 O________OP___ jtwc_io IO181948 17.2000 66.3000 -1 17.2000 66.3000 TC 35 17.1651 66.2461 3 6 17
1948323N10071 1948 86 NI AS NOT_NAMED 1948-11-19 21:00:00 TS 17.4507 66.3676 main 566 543 P________PP___ IO181948 17.4650 66.3926 -1 17.4650 66.3926 TC 35 17.4222 66.3178 3 5 20
1948323N10071 1948 86 NI AS NOT_NAMED 1948-11-20 00:00:00 TS 17.6894 66.4769 main 543 520 O________OP___ jtwc_io IO181948 17.7000 66.5000 -1 17.7000 66.5000 TC 35 17.6682 66.4306 3 5 27
1948323N10071 1948 86 NI AS NOT_NAMED 1948-11-20 03:00:00 TS 17.9050 66.6134 main 520 489 P________PO___ IO181948 17.9074 66.6201 -1 17.9074 66.6201 TC 35 17.9000 66.6000 3 5 37
1948323N10071 1948 86 NI AS NOT_NAMED 1948-11-20 06:00:00 TS 18.1088 66.8074 main 489 450 O________OP___ jtwc_io IO181948 18.1000 66.8000 -1 18.1000 66.8000 TC 35 18.1265 66.8221 3 6 47
1948323N10071 1948 86 NI AS NOT_NAMED 1948-11-20 09:00:00 TS 18.3124 67.0758 main 450 412 P________PP___ IO181948 18.3000 67.0626 -1 18.3000 67.0626 TC 50 18.3373 67.1024 3 7 55
1948323N10071 1948 86 NI AS NOT_NAMED 1948-11-20 12:00:00 TS 18.5098 67.4105 main 412 367 O________OP___ jtwc_io IO181948 18.5000 67.4000 -1 18.5000 67.4000 TC 65 18.5295 67.4316 3 8 59
1948323N10071 1948 86 NI AS NOT_NAMED 1948-11-20 15:00:00 TS 18.7100 67.7850 main 367 322 P________PO___ IO181948 18.7150 67.7775 -1 18.7150 67.7775 TC 65 18.7000 67.8000 4 8 63
1948323N10071 1948 86 NI AS NOT_NAMED 1948-11-20 18:00:00 TS 18.8863 68.1964 main 322 288 O________OP___ jtwc_io IO181948 18.9000 68.2000 -1 18.9000 68.2000 TC 65 18.8588 68.1891 4 9 70
1948323N10071 1948 86 NI AS NOT_NAMED 1948-11-20 21:00:00 TS 19.0084 68.6376 main 288 248 P________PP___ IO181948 19.0150 68.6501 -1 19.0150 68.6501 TC 65 18.9951 68.6125 4 9 76
1948323N10071 1948 86 NI AS NOT_NAMED 1948-11-21 00:00:00 TS 19.1029 69.0849 main 248 215 O________OP___ jtwc_io IO181948 19.1000 69.1000 -1 19.1000 69.1000 TC 65 19.1088 69.0547 4 8 76
1948323N10071 1948 86 NI AS NOT_NAMED 1948-11-21 03:00:00 TS 19.2049 69.5000 main 215 182 P________PO___ IO181948 19.2073 69.5000 -1 19.2073 69.5000 TC 65 19.2000 69.5000 4 8 76
1948323N10071 1948 86 NI AS NOT_NAMED 1948-11-21 06:00:00 TS 19.2919 69.9138 main 182 154 O________OP___ jtwc_io IO181948 19.3000 69.9000 -1 19.3000 69.9000 TC 65 19.2756 69.9415 4 8 80
1948323N10071 1948 86 NI AS NOT_NAMED 1948-11-21 09:00:00 TS 19.3533 70.3601 main 151 145 P________PP___ IO181948 19.3650 70.3500 -1 19.3650 70.3500 TC 65 19.3300 70.3803 4 8 83
1948323N10071 1948 86 NI AS NOT_NAMED 1948-11-21 12:00:00 TS 19.3898 70.8013 main 145 145 O________OP___ jtwc_io IO181948 19.4000 70.8000 -1 19.4000 70.8000 TC 65 19.3694 70.8039 4 8 87
1948323N10071 1948 86 NI AS NOT_NAMED 1948-11-21 15:00:00 TS 19.4000 71.2151 main 151 115 P________PO___ IO181948 19.3999 71.2226 -1 19.3999 71.2226 TC 65 19.4000 71.2000 4 7 88
1948323N10071 1948 86 NI AS NOT_NAMED 1948-11-21 18:00:00 TS 19.4092 71.5833 main 115 84 O________OP___ jtwc_io IO181948 19.4000 71.6000 -1 19.4000 71.6000 TC 65 19.4276 71.5499 4 6 86
1948323N10071 1948 86 NI AS NOT_NAMED 1948-11-21 21:00:00 TS 19.4497 71.9009 main 84 52 P________PP___ IO181948 19.4499 71.9149 -1 19.4499 71.9149 TC 65 19.4493 71.8728 4 6 82
1948323N10071 1948 86 NI AS NOT_NAMED 1948-11-22 00:00:00 TS 19.4905 72.1947 main 52 20 O________OP___ jtwc_io IO181948 19.5000 72.2000 -1 19.5000 72.2000 TC 65 19.4714 72.1842 4 6 85
1948323N10071 1948 86 NI AS NOT_NAMED 1948-11-22 03:00:00 TS 19.4999 72.4951 main 20 0 P________PO___ IO181948 19.4999 72.4926 -1 19.4999 72.4926 TC 50 19.5000 72.5000 4 6 88
1948323N10071 1948 86 NI AS NOT_NAMED 1948-11-22 06:00:00 TS 19.5142 72.8143 main 0 0 O________OP___ jtwc_io IO181948 19.5000 72.8000 -1 19.5000 72.8000 TC 35 19.5427 72.8428 4 6 85
1948323N10071 1948 86 NI AS NOT_NAMED 1948-11-22 09:00:00 TS 19.5591 73.1591 main 0 0 P________PP___ IO181948 19.5425 73.1425 -1 19.5425 73.1425 TC 30 19.5923 73.1925 4 7 81
1948323N10071 1948 86 NI AS NOT_NAMED 1948-11-22 12:00:00 TS 19.6153 73.5153 main 0 0 O________OP___ jtwc_io IO181948 19.6000 73.5000 -1 19.6000 73.5000 TC 25 19.6458 73.5459 4 7 81
1948323N10071 1948 86 NI AS NOT_NAMED 1948-11-22 15:00:00 TS 19.6666 73.8667 main 0 0 P________PO___ IO181948 19.6499 73.8500 -1 19.6499 73.8500 TC 25 19.7000 73.9000 1 7 81
1948323N10071 1948 86 NI AS NOT_NAMED 1948-11-22 18:00:00 TS 19.7210 74.2208 main 0 0 O________OP___ jtwc_io IO181948 19.7000 74.2000 -1 19.7000 74.2000 TC 25 19.7525 74.2521 1 7 81
1948323N10071 1948 86 NI AS NOT_NAMED 1948-11-22 21:00:00 TS 19.7728 74.5724 main 0 0 P________PP___ IO181948 19.7501 74.5499 -1 19.7501 74.5499 TC 25 19.8030 74.6024 1 7 81
1948323N10071 1948 86 NI AS NOT_NAMED 1948-11-23 00:00:00 TS 19.8260 74.9257 main 0 0 O________OP___ jtwc_io IO181948 19.8000 74.9000 -1 19.8000 74.9000 TC 25 19.8520 74.9514 1 7 79
1948323N10071 1948 86 NI AS NOT_NAMED 1948-11-23 03:00:00 NR 19.9000 75.3000 main 0 __________O___ IO181948 -1 TC 19.9000 75.3000 1 7 78

IBTrACS Databaseについて

本データベースは、米国NOAAが公開する1842年以降の世界の熱帯低気圧のベストトラックデータアーカイブInternational Best Track Archive for Climate Stewardship (IBTrACS)を、ウェブで閲覧しやすい形式に変換したものです。

最終更新日:2021-10-27